Time;durP1;ratioP1;P1;durP2;ratioP2;P2;SDS_P1;SDS_P2;PMS_P1;PMS_P2;Temp;Humidity;BMP_temperature;BMP_pressure;BME280_temperature;BME280_humidity;BME280_pressure;Samples;Min_cycle;Max_cycle;Signal;HPM_P1;HPM_P2
2022/04/25 00:01:10;;;;;;;9.63;5.28;;;13.60;57.00;;;;;;5115170;28;20031;-70
2022/04/25 00:03:37;;;;;;;9.60;5.60;;;13.50;57.00;;;;;;5115195;28;20027;-70
2022/04/25 00:06:03;;;;;;;7.72;4.72;;;13.50;57.10;;;;;;5115157;28;20103;-70
2022/04/25 00:08:28;;;;;;;10.57;5.35;;;13.50;57.30;;;;;;5115232;28;20024;-71
2022/04/25 00:10:54;;;;;;;9.15;5.22;;;13.40;57.60;;;;;;5115070;28;20038;-70
2022/04/25 00:13:19;;;;;;;10.68;5.88;;;13.40;57.60;;;;;;5115050;28;20032;-70
2022/04/25 00:15:45;;;;;;;13.00;5.13;;;13.40;57.40;;;;;;5115029;28;20039;-70
2022/04/25 00:18:11;;;;;;;7.97;5.38;;;13.50;57.50;;;;;;5114926;28;20035;-70
2022/04/25 00:20:36;;;;;;;9.10;5.40;;;13.40;57.60;;;;;;5114775;28;20036;-71
2022/04/25 00:23:06;;;;;;;10.77;5.70;;;13.40;57.60;;;;;;5114545;28;20036;-70
2022/04/25 00:25:35;;;;;;;9.13;4.97;;;13.40;57.60;;;;;;5114885;28;20379;-70
2022/04/25 00:28:03;;;;;;;10.20;5.53;;;13.40;57.70;;;;;;5114725;28;20031;-70
2022/04/25 00:30:29;;;;;;;10.63;5.40;;;13.30;57.70;;;;;;5114707;28;20038;-70
2022/04/25 00:32:59;;;;;;;9.05;5.32;;;13.30;57.80;;;;;;5114603;28;20058;-70
2022/04/25 00:35:25;;;;;;;8.43;5.13;;;13.30;57.80;;;;;;5114596;28;20020;-71
2022/04/25 00:37:52;;;;;;;10.48;5.60;;;13.30;57.80;;;;;;5114555;28;20024;-70
2022/04/25 00:40:22;;;;;;;11.20;5.93;;;13.30;57.70;;;;;;5114431;28;20091;-70
2022/04/25 00:42:48;;;;;;;10.90;6.25;;;13.20;57.80;;;;;;5114593;28;20371;-70
2022/04/25 00:45:16;;;;;;;8.73;5.40;;;13.30;58.10;;;;;;5114396;28;20379;-70
2022/04/25 00:47:43;;;;;;;9.45;5.60;;;13.20;57.90;;;;;;5114397;28;20027;-70
2022/04/25 00:50:09;;;;;;;12.23;6.10;;;13.20;58.00;;;;;;5114311;28;20020;-70
2022/04/25 00:52:36;;;;;;;8.90;5.55;;;13.20;58.00;;;;;;5114270;28;20024;-70
2022/04/25 00:55:09;;;;;;;9.38;5.85;;;13.20;58.00;;;;;;5114216;28;20073;-70
2022/04/25 00:57:36;;;;;;;8.73;5.18;;;13.10;57.90;;;;;;5114132;28;20029;-70
2022/04/25 01:00:05;;;;;;;9.27;5.72;;;13.10;59.00;;;;;;5114160;28;20020;-70
2022/04/25 01:02:30;;;;;;;9.75;6.03;;;13.10;58.30;;;;;;5114035;28;20091;-71
2022/04/25 01:04:57;;;;;;;9.88;6.55;;;13.00;58.10;;;;;;5114075;28;20046;-71
2022/04/25 01:07:22;;;;;;;11.18;5.65;;;13.00;58.20;;;;;;5113998;28;20046;-70
2022/04/25 01:09:48;;;;;;;9.73;5.63;;;12.90;58.30;;;;;;5113941;28;20079;-70
2022/04/25 01:12:14;;;;;;;9.45;5.90;;;12.90;58.20;;;;;;5113937;28;20115;-70
2022/04/25 01:14:39;;;;;;;8.77;5.57;;;12.90;58.30;;;;;;5095924;28;20036;-71
2022/04/25 01:17:06;;;;;;;11.50;6.32;;;12.90;58.60;;;;;;5113848;28;20030;-70
2022/04/25 01:19:31;;;;;;;11.98;6.43;;;12.80;58.70;;;;;;5113827;28;20028;-70
2022/04/25 01:22:07;;;;;;;13.27;6.28;;;12.80;59.00;;;;;;5113541;28;20098;-70
2022/04/25 01:27:18;;;;;;;10.07;6.10;;;12.70;59.20;;;;;;5113764;28;20038;-70
2022/04/25 01:29:54;;;;;;;9.20;5.95;;;12.60;59.10;;;;;;5113549;28;20040;-70
2022/04/25 01:32:22;;;;;;;11.35;6.25;;;12.60;60.00;;;;;;5113668;28;20024;-70
2022/04/25 01:34:48;;;;;;;9.07;5.75;;;12.60;59.10;;;;;;5113301;28;20055;-71
2022/04/25 01:37:16;;;;;;;10.10;6.32;;;12.60;59.30;;;;;;5113647;28;20028;-70
2022/04/25 01:39:52;;;;;;;10.65;6.28;;;12.60;59.40;;;;;;5113549;28;20047;-71
2022/04/25 01:42:20;;;;;;;11.82;6.15;;;12.50;59.40;;;;;;5113425;28;20032;-70
2022/04/25 01:44:46;;;;;;;13.00;6.40;;;12.50;59.40;;;;;;5113467;28;20020;-70
2022/04/25 01:47:12;;;;;;;12.77;6.43;;;12.50;59.50;;;;;;5113460;28;20329;-70
2022/04/25 01:49:38;;;;;;;10.23;6.10;;;12.50;59.50;;;;;;5113412;28;20035;-70
2022/04/25 01:52:23;;;;;;;11.88;6.88;;;12.40;59.50;;;;;;5113400;28;20024;-71
2022/04/25 01:54:48;;;;;;;10.30;6.28;;;12.40;59.60;;;;;;5113418;28;20054;-71
2022/04/25 01:57:14;;;;;;;12.75;6.07;;;12.40;59.60;;;;;;5113303;28;20028;-70
2022/04/25 01:59:40;;;;;;;9.55;6.15;;;12.40;59.70;;;;;;5113307;28;20465;-70
2022/04/25 02:02:06;;;;;;;13.27;6.45;;;12.30;59.80;;;;;;5113194;28;20051;-70
2022/04/25 02:04:32;;;;;;;12.27;6.80;;;12.30;60.00;;;;;;5113274;28;20051;-71
2022/04/25 02:06:58;;;;;;;9.73;6.60;;;12.30;60.00;;;;;;5113252;28;20028;-71
2022/04/25 02:09:24;;;;;;;11.27;6.80;;;12.30;60.00;;;;;;5114858;28;20027;-70
2022/04/25 02:11:49;;;;;;;12.82;6.40;;;12.30;60.10;;;;;;5117379;28;20043;-71
2022/04/25 02:14:15;;;;;;;10.10;6.32;;;12.20;60.20;;;;;;5117331;28;20091;-70
2022/04/25 02:16:41;;;;;;;12.38;7.00;;;12.20;60.30;;;;;;5117285;28;20047;-70
2022/04/25 02:19:07;;;;;;;12.65;6.90;;;12.20;60.30;;;;;;5117239;28;20028;-70
2022/04/25 02:21:33;;;;;;;13.80;6.85;;;12.10;60.20;;;;;;5117124;28;20035;-70
2022/04/25 02:23:59;;;;;;;13.85;6.82;;;12.10;60.20;;;;;;5099040;28;20411;-70
2022/04/25 02:26:25;;;;;;;12.25;6.70;;;12.10;60.30;;;;;;5117111;28;20032;-70
2022/04/25 02:28:54;;;;;;;10.40;6.70;;;12.00;60.50;;;;;;5117009;28;20072;-71
2022/04/25 02:31:20;;;;;;;11.82;6.53;;;12.00;60.60;;;;;;5099070;28;20035;-70
2022/04/25 02:33:46;;;;;;;11.48;6.53;;;11.90;60.50;;;;;;5099053;28;20047;-70
2022/04/25 02:36:13;;;;;;;10.55;6.38;;;11.90;60.60;;;;;;5116906;28;20398;-70
2022/04/25 02:38:40;;;;;;;11.15;6.53;;;11.90;60.80;;;;;;5116974;28;20096;-71
2022/04/25 02:41:06;;;;;;;12.10;6.60;;;11.90;60.80;;;;;;5116881;28;20045;-70
2022/04/25 02:43:34;;;;;;;13.48;7.22;;;11.90;61.00;;;;;;5116747;28;20069;-70
2022/04/25 02:46:01;;;;;;;11.73;6.30;;;11.80;61.10;;;;;;5116737;28;20024;-70
2022/04/25 02:48:26;;;;;;;10.25;6.70;;;11.80;61.10;;;;;;5116680;28;20044;-70
2022/04/25 02:50:52;;;;;;;13.23;7.55;;;11.90;61.20;;;;;;5116616;28;20062;-70
2022/04/25 02:53:18;;;;;;;10.50;6.55;;;11.80;61.20;;;;;;5116587;28;20032;-70
2022/04/25 02:55:43;;;;;;;12.15;6.90;;;11.80;61.10;;;;;;5098663;28;20039;-71
2022/04/25 02:58:09;;;;;;;10.38;6.55;;;11.60;61.50;;;;;;5116489;28;20043;-70
2022/04/25 03:00:35;;;;;;;12.10;7.25;;;11.60;61.70;;;;;;5116346;28;20028;-70
2022/04/25 03:03:01;;;;;;;13.45;7.18;;;11.60;61.80;;;;;;5116372;28;20057;-70
2022/04/25 03:05:27;;;;;;;13.45;7.15;;;11.50;61.90;;;;;;5116377;28;20482;-70
2022/04/25 03:07:53;;;;;;;12.75;6.88;;;11.40;62.10;;;;;;5116334;28;20080;-70
2022/04/25 03:10:18;;;;;;;12.60;6.93;;;11.30;62.30;;;;;;5116377;28;20035;-70
2022/04/25 03:12:44;;;;;;;18.23;7.47;;;11.30;62.40;;;;;;5116335;28;20048;-69
2022/04/25 03:15:10;;;;;;;14.35;6.90;;;11.40;62.20;;;;;;5098297;28;20028;-70
2022/04/25 03:17:35;;;;;;;13.10;7.32;;;11.40;62.10;;;;;;5116066;28;20021;-70
2022/04/25 03:20:01;;;;;;;10.13;6.97;;;11.40;62.10;;;;;;5098110;28;20059;-70
2022/04/25 03:22:27;;;;;;;12.85;6.65;;;11.40;62.00;;;;;;5115825;28;20036;-70
2022/04/25 03:24:53;;;;;;;11.80;6.72;;;11.40;62.00;;;;;;5116029;28;20522;-70
2022/04/25 03:27:18;;;;;;;11.35;6.72;;;11.40;62.00;;;;;;5115934;28;20035;-70
2022/04/25 03:29:44;;;;;;;15.30;7.00;;;11.40;62.00;;;;;;5115808;28;20028;-70
2022/04/25 03:32:10;;;;;;;12.98;6.63;;;11.40;62.10;;;;;;5115960;28;20138;-69
2022/04/25 03:34:37;;;;;;;12.02;6.80;;;11.40;62.00;;;;;;5115777;28;20062;-69
2022/04/25 03:37:03;;;;;;;11.70;7.20;;;11.30;62.10;;;;;;5115747;28;20045;-69
2022/04/25 03:39:29;;;;;;;12.80;7.15;;;11.30;62.20;;;;;;5115721;28;20039;-70
2022/04/25 03:41:55;;;;;;;9.98;6.55;;;11.30;62.10;;;;;;5115718;28;20036;-70
2022/04/25 03:44:21;;;;;;;12.20;6.68;;;11.30;62.10;;;;;;5115653;28;20023;-70
2022/04/25 03:46:47;;;;;;;13.98;7.18;;;11.20;61.80;;;;;;5115580;28;20016;-70
2022/04/25 03:49:13;;;;;;;10.13;6.50;;;11.00;61.90;;;;;;5115495;28;20024;-70
2022/04/25 03:51:39;;;;;;;10.35;6.60;;;11.00;62.30;;;;;;5115500;28;20024;-69
2022/04/25 03:54:05;;;;;;;12.95;7.72;;;11.00;62.70;;;;;;5115407;28;20024;-69
2022/04/25 03:59:15;;;;;;;11.38;6.93;;;11.00;63.60;;;;;;5115473;28;20078;-69
2022/04/25 04:01:41;;;;;;;11.52;6.88;;;11.00;63.70;;;;;;5115186;28;20036;-70
2022/04/25 04:04:06;;;;;;;13.57;7.00;;;11.00;62.80;;;;;;5115249;28;20016;-69
2022/04/25 04:06:33;;;;;;;12.25;6.85;;;11.00;62.90;;;;;;5115154;28;20024;-70
2022/04/25 04:08:58;;;;;;;12.05;7.70;;;11.00;62.80;;;;;;5115267;28;20036;-70
2022/04/25 04:11:46;;;;;;;14.68;6.80;;;11.00;62.80;;;;;;5115084;28;20023;-70
2022/04/25 04:14:10;;;;;;;11.68;7.47;;;11.00;63.10;;;;;;5115003;28;20040;-70
2022/04/25 04:16:35;;;;;;;12.65;7.07;;;10.90;63.60;;;;;;5114985;28;20039;-70
2022/04/25 04:19:01;;;;;;;15.13;7.35;;;10.90;63.80;;;;;;5114893;28;20028;-70
2022/04/25 04:21:27;;;;;;;13.32;7.93;;;10.90;64.10;;;;;;5114819;28;20106;-70
2022/04/25 04:23:53;;;;;;;13.48;7.40;;;10.90;64.20;;;;;;5114685;28;20040;-70
2022/04/25 04:26:18;;;;;;;12.80;7.65;;;10.90;64.50;;;;;;5114773;28;20024;-70
2022/04/25 04:28:44;;;;;;;14.55;8.13;;;10.90;64.70;;;;;;5114712;28;20028;-70
2022/04/25 04:31:09;;;;;;;13.27;8.25;;;10.90;64.90;;;;;;5114761;28;20032;-70
2022/04/25 04:33:35;;;;;;;15.02;8.18;;;11.00;65.20;;;;;;5114244;28;20039;-70
2022/04/25 04:36:19;;;;;;;14.15;8.27;;;11.00;65.20;;;;;;5114743;28;20035;-70
2022/04/25 04:38:46;;;;;;;14.57;8.52;;;11.00;65.40;;;;;;5114695;28;20028;-70
2022/04/25 04:41:12;;;;;;;12.50;7.70;;;11.00;65.40;;;;;;5114407;28;20084;-70
2022/04/25 04:43:38;;;;;;;13.00;8.02;;;11.10;65.50;;;;;;5114430;28;20020;-70
2022/04/25 04:46:04;;;;;;;16.58;8.10;;;11.10;65.50;;;;;;5114366;28;20024;-70
2022/04/25 04:48:29;;;;;;;15.27;8.55;;;11.10;65.60;;;;;;5114366;28;20050;-70
2022/04/25 04:50:56;;;;;;;15.27;8.57;;;11.10;65.70;;;;;;5114311;28;20028;-70
2022/04/25 04:53:22;;;;;;;15.18;8.52;;;11.10;65.70;;;;;;5114251;28;20024;-70
2022/04/25 04:55:49;;;;;;;18.60;8.18;;;11.10;65.70;;;;;;5114238;28;20050;-71
2022/04/25 04:58:14;;;;;;;14.38;8.35;;;11.10;66.00;;;;;;5114180;28;20020;-70
2022/04/25 05:00:44;;;;;;;19.48;8.95;;;11.10;66.00;;;;;;5114050;28;21890;-71
2022/04/25 05:03:11;;;;;;;18.02;8.55;;;11.10;65.90;;;;;;5114174;28;20042;-71
2022/04/25 05:05:36;;;;;;;12.30;7.63;;;11.10;65.80;;;;;;5114100;28;20020;-71
2022/04/25 05:08:02;;;;;;;14.65;8.13;;;11.10;65.80;;;;;;5114008;28;20053;-71
2022/04/25 05:10:28;;;;;;;15.25;8.20;;;11.10;65.70;;;;;;5113945;28;20126;-71
2022/04/25 05:12:54;;;;;;;17.73;8.73;;;11.10;66.60;;;;;;5113909;28;20062;-71
2022/04/25 05:15:20;;;;;;;15.77;8.60;;;11.10;65.80;;;;;;5113928;28;20020;-71
2022/04/25 05:17:52;;;;;;;15.77;8.93;;;11.20;65.90;;;;;;5113846;28;20020;-71
2022/04/25 05:20:20;;;;;;;15.32;8.38;;;11.20;66.20;;;;;;5113887;28;20020;-71
2022/04/25 05:22:47;;;;;;;14.15;8.88;;;11.20;66.20;;;;;;5113470;28;20044;-71
2022/04/25 05:25:17;;;;;;;15.77;8.25;;;11.20;66.40;;;;;;5113681;28;20016;-72
2022/04/25 05:27:45;;;;;;;17.02;8.93;;;11.10;66.50;;;;;;5113616;28;20028;-72
2022/04/25 05:30:13;;;;;;;14.55;9.20;;;11.20;66.70;;;;;;5113661;28;20020;-71
2022/04/25 05:32:42;;;;;;;16.10;8.90;;;11.20;66.70;;;;;;5113764;28;20039;-71
2022/04/25 05:35:08;;;;;;;15.43;9.15;;;11.20;66.80;;;;;;5113622;28;20028;-71
2022/04/25 05:37:34;;;;;;;14.88;9.43;;;11.20;66.90;;;;;;5113597;28;20024;-71
2022/04/25 05:39:59;;;;;;;17.00;9.48;;;11.20;67.20;;;;;;5113570;28;20050;-71
2022/04/25 05:42:25;;;;;;;20.20;9.15;;;11.20;67.20;;;;;;5113400;28;20035;-72
2022/04/25 05:44:51;;;;;;;15.57;9.68;;;11.20;68.00;;;;;;5094662;28;20489;-71
2022/04/25 05:47:16;;;;;;;19.98;10.15;;;11.20;67.50;;;;;;5095505;28;20044;-71
2022/04/25 05:52:26;;;;;;;16.80;10.00;;;11.20;67.70;;;;;;5098536;28;20035;-71
2022/04/25 05:54:52;;;;;;;18.88;11.27;;;11.20;67.70;;;;;;5113493;28;20028;-71
2022/04/25 05:57:18;;;;;;;18.80;11.45;;;11.20;67.90;;;;;;5113340;28;20036;-71
2022/04/25 05:59:44;;;;;;;18.50;11.32;;;11.30;68.10;;;;;;5113445;28;20042;-71
2022/04/25 06:02:09;;;;;;;22.13;11.52;;;11.30;68.40;;;;;;5113270;28;20032;-70
2022/04/25 06:04:35;;;;;;;21.77;11.65;;;11.40;68.60;;;;;;5113240;28;20028;-71
2022/04/25 06:07:03;;;;;;;21.20;11.35;;;11.40;68.70;;;;;;5113269;28;20430;-71
2022/04/25 06:09:29;;;;;;;19.60;11.27;;;11.40;69.20;;;;;;5113374;28;20088;-71
2022/04/25 06:11:54;;;;;;;21.75;12.18;;;11.40;69.20;;;;;;5095371;28;20039;-71
2022/04/25 06:14:21;;;;;;;17.25;10.88;;;11.40;69.10;;;;;;5113202;28;20048;-71
2022/04/25 06:16:47;;;;;;;22.30;12.00;;;11.50;69.30;;;;;;5113145;28;20020;-70
2022/04/25 06:19:13;;;;;;;29.85;11.25;;;11.50;69.60;;;;;;5113157;28;20418;-71
2022/04/25 06:21:39;;;;;;;22.02;11.90;;;11.50;69.80;;;;;;5095242;28;20038;-70
2022/04/25 06:24:05;;;;;;;24.90;12.48;;;11.60;70.00;;;;;;5112986;28;20044;-71
2022/04/25 06:26:30;;;;;;;22.27;12.30;;;11.50;70.30;;;;;;5113097;28;20032;-72
2022/04/25 06:28:56;;;;;;;24.95;12.70;;;11.60;70.50;;;;;;5112980;28;20040;-72
2022/04/25 06:31:23;;;;;;;20.45;13.30;;;11.60;70.80;;;;;;5113038;28;20050;-70
2022/04/25 06:33:49;;;;;;;21.50;12.30;;;11.60;70.90;;;;;;5112980;28;20027;-70
2022/04/25 06:36:14;;;;;;;27.35;13.38;;;11.60;71.20;;;;;;5112990;28;20479;-71
2022/04/25 06:38:40;;;;;;;24.00;12.70;;;11.60;71.60;;;;;;5112952;28;20039;-71
2022/04/25 06:41:07;;;;;;;23.20;12.88;;;11.60;71.70;;;;;;5112840;28;20032;-71
2022/04/25 06:43:33;;;;;;;21.45;12.98;;;11.60;71.80;;;;;;5112916;28;20040;-71
2022/04/25 06:45:58;;;;;;;23.92;13.25;;;11.60;71.80;;;;;;5112886;28;20021;-71
2022/04/25 06:48:24;;;;;;;22.45;13.15;;;11.60;71.80;;;;;;5112871;28;20026;-71
2022/04/25 06:50:50;;;;;;;21.10;13.18;;;11.70;72.00;;;;;;5094901;28;20028;-70
2022/04/25 06:53:16;;;;;;;22.92;13.68;;;11.70;72.20;;;;;;5094894;28;20094;-71
2022/04/25 06:55:41;;;;;;;28.23;13.93;;;11.70;72.50;;;;;;5114573;28;20032;-71
2022/04/25 06:58:07;;;;;;;28.25;15.45;;;11.60;72.80;;;;;;5116450;28;20043;-71
2022/04/25 07:00:33;;;;;;;23.08;13.20;;;11.70;72.70;;;;;;5116380;28;20043;-71
2022/04/25 07:02:59;;;;;;;23.25;14.05;;;11.70;72.70;;;;;;5116500;28;20028;-71
2022/04/25 07:05:24;;;;;;;27.35;14.07;;;11.70;72.90;;;;;;5116335;28;20054;-71
2022/04/25 07:07:51;;;;;;;25.30;14.50;;;11.70;73.40;;;;;;5116310;28;20554;-71
2022/04/25 07:10:17;;;;;;;26.52;15.60;;;11.70;73.20;;;;;;5098361;28;20050;-72
2022/04/25 07:12:42;;;;;;;26.45;13.80;;;11.70;73.30;;;;;;5116250;28;20025;-71
2022/04/25 07:15:08;;;;;;;27.50;15.05;;;11.70;73.60;;;;;;5116161;28;20082;-72
2022/04/25 07:17:34;;;;;;;29.80;15.20;;;11.70;73.40;;;;;;5116240;28;20020;-72
2022/04/25 07:20:00;;;;;;;27.85;14.98;;;11.70;73.80;;;;;;5098235;28;20031;-71
2022/04/25 07:30:38;;;;;;;29.23;15.98;;;11.50;74.70;;;;;;5116217;28;20038;-72
2022/04/25 07:33:04;;;;;;;25.10;15.25;;;11.60;74.90;;;;;;5115872;28;20044;-72
2022/04/25 07:35:29;;;;;;;40.70;16.95;;;11.50;75.30;;;;;;5115797;28;20059;-71
2022/04/25 07:37:55;;;;;;;37.65;16.77;;;11.50;75.30;;;;;;5115779;28;20035;-73
2022/04/25 07:40:22;;;;;;;31.27;16.98;;;11.60;75.40;;;;;;5115643;28;20051;-71
2022/04/25 07:42:47;;;;;;;31.17;17.10;;;11.50;75.90;;;;;;5115590;28;20039;-72
2022/04/25 07:45:13;;;;;;;28.38;17.13;;;11.60;75.80;;;;;;5115576;28;20467;-74
2022/04/25 07:47:42;;;;;;;32.08;16.40;;;11.60;75.40;;;;;;5115617;28;20020;-72
2022/04/25 07:50:09;;;;;;;30.15;16.83;;;11.60;76.70;;;;;;5098349;28;20013;-70
2022/04/25 07:52:35;;;;;;;28.88;17.00;;;11.70;75.90;;;;;;5115444;28;20039;-71
2022/04/25 07:55:01;;;;;;;28.30;15.60;;;11.60;75.50;;;;;;5115373;28;20032;-70
2022/04/25 07:57:27;;;;;;;27.58;16.10;;;11.50;75.40;;;;;;5115335;28;20031;-71
2022/04/25 07:59:52;;;;;;;27.23;16.20;;;11.50;76.20;;;;;;5115304;28;20035;-71
2022/04/25 08:02:18;;;;;;;27.73;16.20;;;11.40;75.90;;;;;;5115160;28;20043;-71
2022/04/25 08:04:48;;;;;;;25.90;15.13;;;11.50;76.30;;;;;;5115313;28;20024;-70
2022/04/25 08:07:14;;;;;;;28.20;15.60;;;11.40;76.80;;;;;;5114287;28;20031;-72
2022/04/25 08:09:40;;;;;;;23.15;14.40;;;11.30;77.00;;;;;;5115143;28;20016;-71
2022/04/25 08:20:18;;;;;;;26.38;14.82;;;11.20;77.50;;;;;;5115062;28;20088;-72
2022/04/25 08:22:45;;;;;;;26.33;14.60;;;11.20;77.50;;;;;;5114607;28;20100;-73
2022/04/25 08:25:11;;;;;;;24.60;14.15;;;11.20;78.00;;;;;;5114764;28;20084;-70
2022/04/25 08:27:37;;;;;;;22.55;13.50;;;11.20;77.70;;;;;;5114658;28;20059;-71
2022/04/25 08:30:03;;;;;;;25.55;14.95;;;11.10;77.80;;;;;;5114691;28;20024;-70
2022/04/25 08:32:32;;;;;;;24.10;12.68;;;11.10;78.00;;;;;;5114591;28;20514;-71
2022/04/25 08:34:58;;;;;;;25.73;14.02;;;11.10;77.90;;;;;;5114602;28;20080;-71
2022/04/25 08:37:24;;;;;;;25.02;13.73;;;11.10;78.30;;;;;;5114514;28;20032;-70
2022/04/25 08:39:49;;;;;;;29.50;14.63;;;11.10;78.20;;;;;;5114518;28;20028;-71
2022/04/25 08:42:15;;;;;;;25.50;14.15;;;11.20;78.20;;;;;;5114518;28;20482;-70
2022/04/25 08:44:41;;;;;;;22.92;13.23;;;11.20;78.60;;;;;;5114479;28;20043;-70
2022/04/25 08:47:11;;;;;;;22.88;13.10;;;11.30;77.90;;;;;;5114374;28;20127;-71
2022/04/25 08:49:38;;;;;;;24.92;14.27;;;11.30;77.80;;;;;;5114394;28;20027;-70
2022/04/25 08:52:05;;;;;;;23.92;13.07;;;11.30;78.10;;;;;;5096377;28;20031;-70
2022/04/25 08:54:33;;;;;;;23.33;13.02;;;11.30;78.20;;;;;;5114301;28;20051;-70
2022/04/25 08:56:59;;;;;;;21.58;12.25;;;11.30;77.60;;;;;;5114194;28;20024;-71
2022/04/25 08:59:26;;;;;;;20.50;12.02;;;11.40;77.60;;;;;;5114112;28;20031;-71
2022/04/25 09:01:53;;;;;;;21.58;12.25;;;11.40;77.30;;;;;;5114016;28;20043;-71
2022/04/25 09:04:19;;;;;;;22.30;12.85;;;11.40;77.70;;;;;;5114092;28;20027;-71
2022/04/25 09:06:47;;;;;;;22.55;12.98;;;11.40;77.30;;;;;;5096509;28;20024;-71
2022/04/25 09:09:13;;;;;;;21.77;13.45;;;11.40;77.30;;;;;;5113903;28;20023;-70
2022/04/25 09:14:23;;;;;;;23.27;12.95;;;11.50;77.60;;;;;;5113883;28;20043;-71
2022/04/25 09:16:50;;;;;;;21.77;13.40;;;11.50;77.60;;;;;;5113885;28;20050;-71
2022/04/25 09:19:15;;;;;;;24.50;13.13;;;11.50;77.30;;;;;;5113805;28;20028;-71
2022/04/25 09:21:43;;;;;;;24.35;13.57;;;11.50;78.20;;;;;;5113728;28;20040;-71
2022/04/25 09:24:27;;;;;;;23.83;13.55;;;11.50;77.00;;;;;;5113600;28;20123;-71
2022/04/25 09:26:54;;;;;;;23.70;13.63;;;11.50;77.90;;;;;;5113771;28;20035;-71
2022/04/25 09:29:27;;;;;;;25.65;13.85;;;11.50;77.60;;;;;;5113582;28;20025;-72
2022/04/25 09:31:52;;;;;;;22.75;13.55;;;11.50;78.60;;;;;;5113743;28;20118;-71
2022/04/25 09:34:59;;;;;;;24.77;13.90;;;11.50;77.60;;;;;;5113578;28;20028;-71
2022/04/25 09:37:07;;;;;;;26.58;13.70;;;11.50;77.30;;;;;;5113369;28;20491;-71
2022/04/25 09:39:33;;;;;;;25.77;14.18;;;11.40;77.20;;;;;;5113508;28;20024;-71
2022/04/25 09:42:00;;;;;;;24.88;14.45;;;11.40;77.30;;;;;;5113574;28;20101;-71
2022/04/25 09:44:26;;;;;;;26.88;14.13;;;11.50;77.40;;;;;;5113415;28;20008;-71
2022/04/25 09:46:52;;;;;;;26.65;14.98;;;11.50;77.30;;;;;;5113408;28;20024;-72
2022/04/25 09:49:20;;;;;;;25.33;14.70;;;11.60;77.20;;;;;;5113302;28;20059;-72
2022/04/25 09:52:02;;;;;;;25.42;14.25;;;11.60;77.00;;;;;;5113401;28;20051;-71
2022/04/25 09:54:28;;;;;;;25.02;14.57;;;11.70;77.20;;;;;;5113382;28;20032;-71
2022/04/25 09:56:54;;;;;;;27.73;14.75;;;11.60;77.40;;;;;;5113192;28;20035;-71
2022/04/25 09:59:21;;;;;;;27.67;14.45;;;11.60;77.30;;;;;;5113281;28;20107;-71
2022/04/25 10:02:04;;;;;;;28.45;14.55;;;11.50;76.90;;;;;;5113287;28;20028;-71
2022/04/25 10:04:36;;;;;;;26.02;14.93;;;11.60;76.80;;;;;;5113336;28;20016;-71
2022/04/25 10:07:05;;;;;;;27.17;15.30;;;11.60;76.80;;;;;;5113395;28;20040;-71
2022/04/25 10:09:32;;;;;;;27.67;15.38;;;11.60;76.90;;;;;;5113199;28;20012;-71
2022/04/25 10:12:00;;;;;;;25.98;14.35;;;11.60;76.80;;;;;;5113134;28;20020;-71
2022/04/25 10:14:26;;;;;;;26.95;15.10;;;11.70;76.60;;;;;;5113144;28;20035;-70
2022/04/25 10:16:55;;;;;;;28.98;15.35;;;11.70;76.50;;;;;;5113112;28;20028;-70
2022/04/25 10:19:21;;;;;;;30.80;16.30;;;11.70;76.60;;;;;;5113079;28;20017;-71
2022/04/25 10:21:48;;;;;;;30.58;14.75;;;11.70;76.60;;;;;;5113123;28;20061;-71
2022/04/25 10:24:18;;;;;;;25.42;14.52;;;11.80;76.50;;;;;;5112964;28;20048;-71
2022/04/25 10:26:44;;;;;;;28.17;14.85;;;11.80;76.60;;;;;;5113163;28;20019;-71
2022/04/25 10:29:14;;;;;;;27.70;15.02;;;11.80;76.50;;;;;;5112969;28;20024;-70
2022/04/25 10:31:43;;;;;;;29.10;14.95;;;11.80;77.00;;;;;;5116511;28;20017;-71
2022/04/25 10:34:10;;;;;;;28.80;15.48;;;11.80;77.50;;;;;;5116945;28;20027;-71
2022/04/25 10:36:38;;;;;;;31.05;15.30;;;11.80;77.20;;;;;;5116985;28;20024;-71
2022/04/25 10:39:24;;;;;;;25.13;14.13;;;11.80;77.30;;;;;;5116860;28;20039;-71
2022/04/25 10:44:37;;;;;;;26.83;14.45;;;11.80;76.90;;;;;;5116889;28;20046;-71
2022/04/25 10:47:05;;;;;;;25.67;14.18;;;11.80;76.40;;;;;;5116695;28;20032;-70
2022/04/25 10:49:38;;;;;;;22.45;12.95;;;11.70;76.50;;;;;;5116696;28;20035;-70
2022/04/25 10:52:09;;;;;;;22.30;12.05;;;11.70;77.30;;;;;;5116635;28;20024;-71
2022/04/25 10:54:49;;;;;;;22.33;12.02;;;11.70;76.50;;;;;;5116673;28;20079;-70
2022/04/25 10:57:16;;;;;;;22.80;13.00;;;11.70;76.50;;;;;;5116669;28;20050;-70
2022/04/25 10:59:42;;;;;;;23.05;12.65;;;11.70;76.90;;;;;;5116496;28;20032;-70
2022/04/25 11:02:28;;;;;;;25.08;13.55;;;11.70;77.00;;;;;;5116551;28;20028;-70
2022/04/25 11:05:11;;;;;;;23.02;12.90;;;11.70;77.00;;;;;;5116434;28;20024;-71
2022/04/25 11:07:38;;;;;;;24.75;13.38;;;11.70;77.20;;;;;;5116280;28;20039;-71
2022/04/25 11:10:05;;;;;;;24.40;13.73;;;11.70;78.30;;;;;;5116311;28;20031;-72
2022/04/25 11:12:56;;;;;;;25.10;12.57;;;11.80;77.40;;;;;;5116248;28;20049;-71
2022/04/25 11:15:42;;;;;;;23.20;12.75;;;11.80;76.90;;;;;;5116192;28;20024;-71
2022/04/25 11:18:37;;;;;;;26.65;13.68;;;11.80;76.50;;;;;;5116149;28;20036;-70
2022/04/25 11:21:07;;;;;;;24.08;13.00;;;11.80;76.50;;;;;;5116075;28;20031;-70
2022/04/25 11:23:35;;;;;;;23.48;12.77;;;11.90;76.40;;;;;;5115769;28;20036;-70
2022/04/25 11:26:04;;;;;;;24.27;13.38;;;11.90;76.20;;;;;;5116018;28;20042;-70
2022/04/25 11:28:32;;;;;;;23.98;13.82;;;12.00;76.30;;;;;;5115908;28;20012;-70
2022/04/25 11:31:13;;;;;;;23.95;14.02;;;12.00;76.20;;;;;;5115914;28;20525;-71
2022/04/25 11:33:47;;;;;;;25.25;13.93;;;12.00;75.90;;;;;;5115887;28;20103;-71
2022/04/25 11:36:13;;;;;;;25.33;13.88;;;12.10;75.90;;;;;;5115805;28;20030;-70
2022/04/25 11:41:24;;;;;;;25.35;13.80;;;12.10;75.80;;;;;;5114734;28;20054;-70
2022/04/25 11:43:50;;;;;;;27.70;14.63;;;12.10;75.80;;;;;;5115486;28;20040;-70
2022/04/25 11:46:16;;;;;;;27.10;15.23;;;12.10;76.00;;;;;;5115631;28;20024;-70
2022/04/25 11:48:42;;;;;;;27.73;14.70;;;12.10;76.20;;;;;;5115557;28;20454;-71
2022/04/25 11:51:08;;;;;;;25.52;14.65;;;12.10;75.90;;;;;;5115688;28;20103;-70
2022/04/25 11:53:34;;;;;;;28.17;14.20;;;12.10;75.60;;;;;;5115481;28;20043;-70
2022/04/25 11:56:13;;;;;;;24.92;13.60;;;12.10;75.70;;;;;;5115444;28;20043;-70
2022/04/25 11:58:39;;;;;;;26.15;13.65;;;12.10;75.70;;;;;;5115385;28;20025;-70
2022/04/25 12:01:05;;;;;;;25.00;14.27;;;12.10;75.60;;;;;;5115289;28;20028;-70
2022/04/25 12:03:30;;;;;;;28.02;13.73;;;12.20;75.40;;;;;;5115309;28;20028;-70
2022/04/25 12:06:08;;;;;;;26.02;14.20;;;12.20;76.10;;;;;;5097149;28;20028;-70
2022/04/25 12:16:47;;;;;;;23.15;13.70;;;12.30;74.60;;;;;;5115214;28;20398;-71
2022/04/25 12:19:13;;;;;;;21.65;12.82;;;12.30;74.50;;;;;;5114992;28;20032;-71
2022/04/25 12:21:47;;;;;;;21.15;12.45;;;12.30;74.40;;;;;;5114776;28;20441;-71
2022/04/25 12:24:19;;;;;;;20.40;12.65;;;12.40;74.20;;;;;;5114689;28;20052;-71
2022/04/25 12:26:44;;;;;;;25.30;13.48;;;12.30;74.30;;;;;;5114888;28;20023;-72
2022/04/25 12:29:12;;;;;;;26.85;13.40;;;12.30;74.30;;;;;;5114733;28;20024;-71
2022/04/25 12:31:48;;;;;;;26.92;14.40;;;12.30;74.10;;;;;;5114728;28;20027;-71
2022/04/25 12:34:16;;;;;;;28.85;15.48;;;12.30;74.40;;;;;;5114724;28;20024;-71
2022/04/25 12:36:58;;;;;;;29.27;16.30;;;12.20;74.90;;;;;;5114651;28;20028;-71
2022/04/25 12:39:27;;;;;;;30.13;16.95;;;12.10;75.40;;;;;;5114747;28;20082;-71
2022/04/25 12:41:58;;;;;;;29.73;15.13;;;12.00;75.70;;;;;;5114510;28;20059;-71
2022/04/25 12:44:25;;;;;;;24.35;13.65;;;12.00;76.20;;;;;;5114510;28;20034;-71
2022/04/25 12:47:00;;;;;;;24.42;13.70;;;12.00;76.00;;;;;;5114490;28;20218;-71
2022/04/25 12:49:35;;;;;;;23.80;13.98;;;11.80;77.20;;;;;;5114441;28;20039;-71
2022/04/25 12:52:04;;;;;;;26.77;14.57;;;11.90;76.00;;;;;;5114256;28;20079;-71
2022/04/25 12:54:37;;;;;;;24.42;13.95;;;11.80;76.30;;;;;;5113861;28;20020;-70
2022/04/25 12:57:16;;;;;;;28.33;15.15;;;11.80;76.40;;;;;;5114293;28;20028;-70
2022/04/25 12:59:52;;;;;;;28.35;14.32;;;11.90;76.20;;;;;;5114224;28;20475;-71
2022/04/25 13:02:21;;;;;;;25.80;13.68;;;11.90;76.10;;;;;;5096090;28;20035;-70
2022/04/25 13:05:00;;;;;;;27.85;14.63;;;11.90;76.20;;;;;;5114057;28;20027;-72
2022/04/25 13:07:31;;;;;;;27.10;14.23;;;11.90;76.10;;;;;;5114053;28;20028;-71
2022/04/25 13:10:02;;;;;;;25.17;13.27;;;11.90;76.20;;;;;;5114029;28;20083;-71
2022/04/25 13:12:45;;;;;;;25.80;14.35;;;11.90;76.20;;;;;;5113866;28;20032;-72
2022/04/25 13:15:18;;;;;;;26.02;13.63;;;12.00;76.20;;;;;;5113958;28;20027;-71
2022/04/25 13:17:44;;;;;;;23.85;13.48;;;12.00;76.00;;;;;;5113910;28;20020;-71